createdAt,value
2018-12-31T00:01:22.446Z,29.40
2018-12-31T00:04:10.738Z,26.23
2018-12-31T00:06:59.750Z,26.27
2018-12-31T00:09:30.108Z,26.53
2018-12-31T00:12:19.034Z,26.07
2018-12-31T00:15:07.590Z,26.43
2018-12-31T00:17:56.652Z,24.93
2018-12-31T00:20:45.839Z,23.57
2018-12-31T00:23:34.699Z,23.80
2018-12-31T00:26:23.508Z,26.20
2018-12-31T00:29:11.917Z,23.67
2018-12-31T00:32:00.684Z,27.10
2018-12-31T00:34:49.504Z,26.27
2018-12-31T00:37:38.687Z,24.53
2018-12-31T00:40:27.728Z,23.87
2018-12-31T00:43:17.186Z,24.53
2018-12-31T00:46:05.877Z,25.90
2018-12-31T00:48:54.226Z,25.47
2018-12-31T00:51:43.218Z,25.00
2018-12-31T00:54:31.626Z,24.80
2018-12-31T00:57:20.118Z,25.07
2018-12-31T01:00:09.030Z,24.20
2018-12-31T01:02:57.927Z,23.53
2018-12-31T01:05:47.077Z,25.73
2018-12-31T01:08:26.744Z,24.40
2018-12-31T01:11:16.121Z,23.77
2018-12-31T01:14:04.700Z,25.03
2018-12-31T01:16:53.666Z,24.47
2018-12-31T01:19:43.239Z,24.50
2018-12-31T01:22:32.267Z,22.80
2018-12-31T01:25:21.002Z,22.30
2018-12-31T01:28:09.423Z,22.10
2018-12-31T01:30:58.506Z,20.60
2018-12-31T01:33:48.458Z,22.20
2018-12-31T01:36:37.453Z,21.37
2018-12-31T01:39:26.671Z,21.07
2018-12-31T01:42:15.440Z,19.60
2018-12-31T01:45:04.925Z,20.57
2018-12-31T01:47:53.600Z,20.37
2018-12-31T01:50:42.460Z,20.63
2018-12-31T01:53:31.191Z,20.20
2018-12-31T01:56:19.783Z,20.93
2018-12-31T01:58:49.838Z,21.20
2018-12-31T02:01:38.716Z,20.03
2018-12-31T02:04:27.274Z,20.17
2018-12-31T02:07:16.254Z,19.67
2018-12-31T02:10:05.061Z,18.80
2018-12-31T02:12:53.541Z,20.33
2018-12-31T02:15:41.984Z,20.70
2018-12-31T02:18:30.999Z,19.90
2018-12-31T02:21:19.992Z,20.37
2018-12-31T02:24:08.820Z,20.23
2018-12-31T02:26:57.026Z,19.30
2018-12-31T02:29:46.348Z,17.80
2018-12-31T02:32:35.464Z,18.87
2018-12-31T02:35:24.449Z,19.10
2018-12-31T02:38:13.037Z,18.70
2018-12-31T02:41:02.921Z,18.13
2018-12-31T02:43:51.972Z,19.17
2018-12-31T02:46:40.975Z,17.77
2018-12-31T02:49:29.824Z,18.33
2018-12-31T02:52:18.403Z,17.43
2018-12-31T02:54:57.648Z,21.13
2018-12-31T02:57:45.876Z,19.67
2018-12-31T03:00:34.216Z,17.10
2018-12-31T03:03:22.952Z,18.10
2018-12-31T03:06:11.886Z,16.80
2018-12-31T03:09:00.069Z,19.37
2018-12-31T03:11:48.593Z,18.77
2018-12-31T03:14:37.652Z,18.90
2018-12-31T03:17:27.566Z,19.70
2018-12-31T03:20:15.873Z,18.27
2018-12-31T03:23:04.864Z,19.10
2018-12-31T03:25:53.924Z,19.07
2018-12-31T03:28:42.788Z,20.60
2018-12-31T03:31:31.476Z,18.70
2018-12-31T03:34:20.272Z,20.80
2018-12-31T03:37:09.231Z,19.50
2018-12-31T03:39:58.340Z,19.90
2018-12-31T03:42:28.593Z,19.53
2018-12-31T03:45:17.389Z,20.60
2018-12-31T03:48:06.054Z,21.80
2018-12-31T03:50:55.164Z,20.67
2018-12-31T03:53:44.386Z,20.10
2018-12-31T03:56:33.801Z,20.50
2018-12-31T03:59:22.529Z,19.13
2018-12-31T04:02:11.430Z,20.93
2018-12-31T04:05:00.232Z,19.93
2018-12-31T04:07:53.310Z,19.10
2018-12-31T04:10:39.510Z,18.97
2018-12-31T04:13:29.176Z,19.83
2018-12-31T04:16:18.156Z,18.77
2018-12-31T04:19:06.560Z,19.57
2018-12-31T04:21:55.442Z,18.20
2018-12-31T04:24:43.750Z,20.70
2018-12-31T04:27:32.269Z,19.00
2018-12-31T04:30:20.961Z,19.73
2018-12-31T04:33:09.382Z,18.60
2018-12-31T04:35:58.929Z,20.93
2018-12-31T04:38:48.123Z,21.10
2018-12-31T04:41:36.837Z,22.90
2018-12-31T04:44:26.276Z,20.67
2018-12-31T04:47:15.131Z,22.43
2018-12-31T04:49:45.585Z,23.00
2018-12-31T04:52:34.320Z,21.80
2018-12-31T04:55:22.813Z,23.70
2018-12-31T04:58:12.053Z,24.60
2018-12-31T05:01:00.925Z,22.53
2018-12-31T05:03:49.908Z,21.57
2018-12-31T05:06:38.670Z,22.17
2018-12-31T05:09:27.809Z,23.80
2018-12-31T05:12:17.070Z,22.73
2018-12-31T05:15:06.441Z,24.20
2018-12-31T05:17:55.374Z,24.27
2018-12-31T05:20:44.494Z,23.00
2018-12-31T05:23:33.136Z,24.47
2018-12-31T05:26:22.328Z,24.40
2018-12-31T05:29:11.112Z,24.23
2018-12-31T05:31:59.889Z,23.93
2018-12-31T05:34:48.936Z,25.40
2018-12-31T05:37:38.130Z,24.80
2018-12-31T05:40:26.468Z,23.50
2018-12-31T05:43:15.175Z,25.77
2018-12-31T05:46:03.576Z,23.50
2018-12-31T05:48:52.650Z,24.70
2018-12-31T05:51:41.432Z,24.37
2018-12-31T05:54:30.776Z,24.07
2018-12-31T05:57:20.153Z,25.20
2018-12-31T05:59:56.496Z,22.63
2018-12-31T06:02:45.438Z,24.53
2018-12-31T06:05:34.892Z,25.07
2018-12-31T06:08:23.555Z,25.97
2018-12-31T06:11:13.271Z,24.83
2018-12-31T06:14:02.167Z,24.63
2018-12-31T06:16:51.530Z,25.63
2018-12-31T06:19:40.814Z,24.40
2018-12-31T06:22:29.687Z,26.50
2018-12-31T06:25:18.808Z,25.47
2018-12-31T06:28:08.188Z,27.57
2018-12-31T06:30:56.849Z,26.63
2018-12-31T06:33:45.690Z,26.97
2018-12-31T06:36:33.943Z,27.60
2018-12-31T06:39:22.423Z,26.40
2018-12-31T06:42:11.202Z,27.80
2018-12-31T06:44:41.365Z,26.07
2018-12-31T06:47:29.921Z,26.90
2018-12-31T06:50:18.837Z,26.67
2018-12-31T06:53:08.179Z,28.03
2018-12-31T06:55:56.926Z,26.57
2018-12-31T06:58:46.127Z,27.20
2018-12-31T07:01:35.213Z,26.93
2018-12-31T07:04:23.794Z,29.77
2018-12-31T07:07:12.601Z,28.50
2018-12-31T07:10:01.089Z,28.27
2018-12-31T07:12:49.647Z,28.77
2018-12-31T07:15:38.443Z,27.97
2018-12-31T07:18:27.044Z,27.17
2018-12-31T07:21:16.359Z,27.77
2018-12-31T07:24:05.162Z,29.10
2018-12-31T07:26:53.874Z,29.90
2018-12-31T07:29:42.437Z,28.47
2018-12-31T07:32:31.547Z,28.37
2018-12-31T07:35:20.206Z,29.77
2018-12-31T07:38:09.254Z,29.00
2018-12-31T07:40:58.330Z,29.13
2018-12-31T07:43:47.545Z,28.60
2018-12-31T07:46:36.376Z,30.73
2018-12-31T07:49:25.442Z,27.87
2018-12-31T07:52:14.031Z,28.83
2018-12-31T07:55:03.046Z,28.73
2018-12-31T07:57:52.060Z,29.70
2018-12-31T08:00:41.126Z,30.23
2018-12-31T08:03:30.220Z,28.80
2018-12-31T08:06:19.434Z,27.90
2018-12-31T08:09:08.711Z,29.13
2018-12-31T08:11:57.683Z,28.03
2018-12-31T08:14:34.138Z,28.97
2018-12-31T08:17:23.352Z,28.90
2018-12-31T08:20:12.946Z,28.77
2018-12-31T08:23:01.653Z,28.37
2018-12-31T08:25:50.624Z,27.67
2018-12-31T08:28:39.405Z,30.17
2018-12-31T08:31:28.769Z,28.43
2018-12-31T08:34:18.043Z,26.97
2018-12-31T08:37:07.311Z,27.60
2018-12-31T08:39:55.850Z,27.90
2018-12-31T08:42:45.114Z,29.67
2018-12-31T08:45:34.178Z,29.13
2018-12-31T08:48:22.916Z,28.27
2018-12-31T08:51:11.805Z,27.70
2018-12-31T08:54:00.705Z,27.40
2018-12-31T08:56:49.695Z,29.63
2018-12-31T08:59:38.791Z,27.87
2018-12-31T09:02:28.407Z,29.63
2018-12-31T09:05:17.765Z,28.07
2018-12-31T09:08:06.883Z,28.43
2018-12-31T09:10:55.764Z,29.77
2018-12-31T09:13:45.121Z,29.63
2018-12-31T09:16:34.147Z,29.40
2018-12-31T09:19:04.140Z,29.70
2018-12-31T09:21:52.932Z,30.40
2018-12-31T09:24:44.732Z,28.40
2018-12-31T09:27:32.253Z,28.50
2018-12-31T09:30:21.353Z,27.37
2018-12-31T09:33:10.420Z,28.73
2018-12-31T09:35:59.398Z,29.17
2018-12-31T09:38:48.813Z,29.07
2018-12-31T09:41:37.595Z,32.13
2018-12-31T09:44:26.838Z,28.00
2018-12-31T09:47:16.137Z,28.00
2018-12-31T09:50:05.201Z,28.20
2018-12-31T09:52:41.716Z,26.40
2018-12-31T09:55:31.064Z,27.80
2018-12-31T09:58:20.332Z,28.73
2018-12-31T10:01:09.451Z,28.03
2018-12-31T10:03:58.463Z,29.33
2018-12-31T10:06:32.382Z,28.97
2018-12-31T10:09:21.576Z,29.50
2018-12-31T10:12:10.413Z,31.10
2018-12-31T10:14:59.225Z,28.50
2018-12-31T10:17:48.351Z,28.13
2018-12-31T10:20:37.948Z,29.10
2018-12-31T10:23:27.126Z,26.77
2018-12-31T10:26:16.354Z,28.80
2018-12-31T10:29:05.784Z,27.70
2018-12-31T10:31:54.994Z,29.60
2018-12-31T10:34:44.127Z,30.20
2018-12-31T10:37:33.323Z,29.00
2018-12-31T10:40:22.519Z,28.70
2018-12-31T10:43:11.380Z,28.87
2018-12-31T10:46:00.876Z,28.17
2018-12-31T10:48:31.237Z,29.17
2018-12-31T10:51:20.110Z,28.47
2018-12-31T10:54:09.065Z,28.57
2018-12-31T10:56:58.422Z,26.30
2018-12-31T10:59:47.143Z,29.20
2018-12-31T11:02:36.268Z,27.90
2018-12-31T11:05:25.850Z,27.93
2018-12-31T11:08:14.886Z,28.90
2018-12-31T11:11:04.105Z,27.90
2018-12-31T11:13:52.648Z,27.93
2018-12-31T11:16:41.110Z,27.63
2018-12-31T11:19:30.556Z,26.23
2018-12-31T11:22:19.742Z,25.60
2018-12-31T11:25:09.122Z,25.60
2018-12-31T11:27:58.307Z,26.30
2018-12-31T11:30:47.389Z,24.57
2018-12-31T11:33:37.374Z,25.53
2018-12-31T11:36:26.808Z,24.40
2018-12-31T11:39:16.627Z,25.50
2018-12-31T11:42:05.776Z,26.20
2018-12-31T11:44:55.269Z,24.30
2018-12-31T11:47:44.459Z,25.73
2018-12-31T11:50:14.769Z,26.20
2018-12-31T11:53:03.645Z,26.03
2018-12-31T11:55:52.691Z,27.27
2018-12-31T11:58:42.184Z,25.37
2018-12-31T12:01:31.723Z,26.47
2018-12-31T12:04:20.947Z,24.77
2018-12-31T12:07:10.414Z,23.80
2018-12-31T12:09:59.805Z,25.97
2018-12-31T12:12:49.302Z,25.37
2018-12-31T12:15:38.368Z,25.90
2018-12-31T12:18:27.462Z,25.40
2018-12-31T12:21:16.558Z,27.73
2018-12-31T12:24:06.127Z,27.77
2018-12-31T12:26:55.097Z,25.83
2018-12-31T12:29:44.440Z,27.00
2018-12-31T12:32:33.577Z,26.10
2018-12-31T12:35:22.952Z,26.13
2018-12-31T12:38:12.356Z,24.60
2018-12-31T12:41:01.581Z,25.30
2018-12-31T12:43:52.838Z,25.63
2018-12-31T12:46:42.219Z,24.87
2018-12-31T12:49:31.882Z,25.83
2018-12-31T12:52:20.512Z,24.70
2018-12-31T12:55:09.501Z,24.07
2018-12-31T12:57:58.348Z,24.07
2018-12-31T13:00:47.818Z,24.50
2018-12-31T13:03:37.844Z,24.30
2018-12-31T13:06:26.987Z,24.40
2018-12-31T13:09:16.257Z,23.83
2018-12-31T13:12:05.696Z,23.47
2018-12-31T13:14:37.367Z,23.20
2018-12-31T13:17:26.969Z,25.20
2018-12-31T13:20:16.659Z,24.40
2018-12-31T13:23:05.767Z,24.53
2018-12-31T13:25:54.598Z,25.10
2018-12-31T13:28:45.519Z,22.90
2018-12-31T13:31:34.423Z,24.03
2018-12-31T13:34:25.421Z,23.00
2018-12-31T13:37:14.726Z,23.80
2018-12-31T13:40:03.585Z,25.50
2018-12-31T13:42:56.168Z,24.60
2018-12-31T13:45:45.552Z,24.07
2018-12-31T13:48:34.838Z,24.50
2018-12-31T13:51:23.338Z,23.90
2018-12-31T13:54:12.566Z,23.60
2018-12-31T13:56:42.967Z,24.07
2018-12-31T13:59:31.821Z,22.97
2018-12-31T14:02:20.778Z,22.77
2018-12-31T14:05:10.071Z,23.87
2018-12-31T14:07:59.167Z,21.57
2018-12-31T14:10:48.279Z,23.90
2018-12-31T14:13:37.637Z,23.40
2018-12-31T14:16:26.658Z,23.67
2018-12-31T14:19:15.472Z,23.90
2018-12-31T14:22:04.508Z,23.10
2018-12-31T14:24:53.846Z,23.97
2018-12-31T14:27:43.909Z,22.00
2018-12-31T14:30:32.773Z,23.53
2018-12-31T14:33:21.852Z,24.00
2018-12-31T14:36:10.572Z,23.40
2018-12-31T14:38:41.166Z,24.23
2018-12-31T14:41:30.661Z,22.83
2018-12-31T14:44:20.029Z,21.80
2018-12-31T14:47:08.884Z,24.50
2018-12-31T14:49:58.046Z,22.93
2018-12-31T14:52:47.107Z,23.23
2018-12-31T14:55:38.014Z,23.23
2018-12-31T14:58:27.453Z,24.13
2018-12-31T15:01:16.656Z,22.93
2018-12-31T15:04:05.854Z,23.93
2018-12-31T15:06:55.451Z,22.90
2018-12-31T15:09:44.876Z,24.20
2018-12-31T15:12:33.669Z,23.50
2018-12-31T15:15:23.324Z,25.63
2018-12-31T15:18:12.282Z,24.77
2018-12-31T15:20:42.320Z,25.07
2018-12-31T15:23:31.404Z,26.17
2018-12-31T15:26:20.059Z,22.90
2018-12-31T15:29:09.286Z,23.93
2018-12-31T15:31:45.968Z,24.83
2018-12-31T15:34:34.460Z,24.10
2018-12-31T15:37:23.460Z,24.83
2018-12-31T15:40:12.910Z,23.37
2018-12-31T15:43:02.704Z,24.60
2018-12-31T15:45:52.052Z,22.80
2018-12-31T15:48:41.453Z,24.97
2018-12-31T15:51:30.882Z,25.30
2018-12-31T15:54:19.930Z,24.57
2018-12-31T15:57:09.592Z,23.10
2018-12-31T15:59:58.838Z,24.20
2018-12-31T16:02:48.555Z,22.80
2018-12-31T16:05:38.136Z,24.70
2018-12-31T16:08:26.795Z,24.17
2018-12-31T16:11:16.442Z,24.77
2018-12-31T16:14:05.502Z,32.97
2018-12-31T16:16:35.693Z,32.43
2018-12-31T16:19:25.339Z,28.17
2018-12-31T16:22:14.044Z,26.50
2018-12-31T16:25:03.416Z,25.37
2018-12-31T16:27:52.460Z,25.50
2018-12-31T16:30:41.626Z,24.97
2018-12-31T16:33:32.006Z,24.40
2018-12-31T16:36:21.682Z,26.47
2018-12-31T16:39:10.952Z,23.67
2018-12-31T16:41:59.962Z,25.47
2018-12-31T16:44:49.008Z,24.90
2018-12-31T16:47:38.100Z,27.40
2018-12-31T16:50:28.938Z,26.37
2018-12-31T16:53:18.133Z,26.70
2018-12-31T16:56:07.775Z,27.53
2018-12-31T16:58:56.852Z,30.20
2018-12-31T17:01:46.146Z,27.87
2018-12-31T17:04:35.203Z,26.20
2018-12-31T17:07:28.265Z,28.10
2018-12-31T17:10:02.455Z,29.30
2018-12-31T17:12:51.131Z,30.50
2018-12-31T17:15:41.099Z,29.50
2018-12-31T17:18:30.478Z,31.80
2018-12-31T17:21:19.625Z,31.87
2018-12-31T17:24:08.154Z,31.23
2018-12-31T17:26:57.431Z,28.10
2018-12-31T17:29:46.608Z,30.10
2018-12-31T17:32:36.066Z,30.70
2018-12-31T17:35:25.838Z,31.80
2018-12-31T17:38:14.749Z,31.17
2018-12-31T17:41:03.719Z,30.50
2018-12-31T17:43:53.290Z,33.63
2018-12-31T17:46:43.037Z,32.53
2018-12-31T17:49:32.455Z,32.07
2018-12-31T17:52:21.652Z,30.47
2018-12-31T17:55:10.364Z,31.63
2018-12-31T17:57:40.439Z,31.57
2018-12-31T18:00:30.591Z,31.50
2018-12-31T18:03:19.781Z,30.40
2018-12-31T18:06:09.731Z,30.30
2018-12-31T18:08:59.251Z,32.70
2018-12-31T18:11:48.240Z,33.20
2018-12-31T18:14:37.775Z,32.60
2018-12-31T18:17:26.725Z,33.10
2018-12-31T18:20:15.818Z,32.93
2018-12-31T18:23:05.172Z,31.30
2018-12-31T18:25:54.035Z,33.90
2018-12-31T18:28:43.685Z,32.63
2018-12-31T18:31:33.047Z,60.70
2018-12-31T18:34:22.169Z,40.43
2018-12-31T18:37:10.917Z,33.60
2018-12-31T18:39:59.615Z,34.67
2018-12-31T18:42:48.800Z,31.53
2018-12-31T18:45:18.942Z,33.97
2018-12-31T18:48:08.252Z,33.63
2018-12-31T18:50:57.881Z,31.83
2018-12-31T18:53:46.622Z,32.20
2018-12-31T18:56:35.687Z,30.13
2018-12-31T18:59:25.187Z,31.70
2018-12-31T19:02:15.137Z,30.40
2018-12-31T19:05:06.124Z,32.03
2018-12-31T19:07:54.719Z,30.03
2018-12-31T19:10:43.974Z,30.63
2018-12-31T19:13:33.788Z,30.40
2018-12-31T19:16:23.378Z,30.23
2018-12-31T19:19:12.207Z,31.30
2018-12-31T19:22:01.119Z,29.70
2018-12-31T19:24:50.397Z,31.10
2018-12-31T19:27:38.962Z,31.07
2018-12-31T19:30:27.946Z,31.67
2018-12-31T19:33:17.660Z,29.50
2018-12-31T19:36:07.501Z,29.17
2018-12-31T19:38:57.496Z,29.43
2018-12-31T19:41:46.803Z,29.57
2018-12-31T19:44:36.536Z,29.43
2018-12-31T19:47:25.398Z,31.13
2018-12-31T19:50:15.253Z,31.50
2018-12-31T19:53:04.183Z,30.50
2018-12-31T19:55:54.128Z,31.93
2018-12-31T19:58:42.772Z,29.93
2018-12-31T20:01:31.986Z,29.97
2018-12-31T20:04:20.629Z,29.63
2018-12-31T20:07:10.484Z,30.37
2018-12-31T20:10:00.649Z,32.53
2018-12-31T20:12:50.556Z,33.40
2018-12-31T20:15:39.684Z,33.20
2018-12-31T20:18:28.837Z,31.20
2018-12-31T20:21:17.893Z,30.20
2018-12-31T20:24:07.408Z,29.17
2018-12-31T20:26:56.183Z,28.50
2018-12-31T20:29:45.430Z,32.33
2018-12-31T20:32:34.807Z,36.87
2018-12-31T20:35:24.555Z,50.90
2018-12-31T20:38:13.598Z,51.40
2018-12-31T20:41:02.993Z,47.87
2018-12-31T20:43:52.672Z,46.23
2018-12-31T20:46:41.765Z,39.83
2018-12-31T20:49:30.808Z,32.67
2018-12-31T20:52:20.481Z,32.57
2018-12-31T20:55:09.713Z,29.93
2018-12-31T20:57:59.073Z,29.63
2018-12-31T21:00:48.078Z,29.03
2018-12-31T21:03:36.542Z,26.83
2018-12-31T21:06:06.699Z,28.03
2018-12-31T21:08:56.339Z,30.27
2018-12-31T21:11:45.141Z,28.33
2018-12-31T21:14:34.721Z,28.50
2018-12-31T21:17:23.518Z,28.40
2018-12-31T21:20:12.819Z,27.10
2018-12-31T21:23:01.798Z,28.03
2018-12-31T21:25:51.006Z,26.93
2018-12-31T21:28:39.693Z,28.90
2018-12-31T21:31:28.296Z,27.30
2018-12-31T21:34:17.790Z,29.07
2018-12-31T21:37:06.744Z,28.47
2018-12-31T21:39:55.779Z,28.60
2018-12-31T21:42:44.489Z,28.60
2018-12-31T21:45:34.480Z,31.17
2018-12-31T21:48:23.033Z,29.57
2018-12-31T21:51:12.235Z,28.90
2018-12-31T21:54:01.404Z,30.37
2018-12-31T21:56:50.000Z,32.30
2018-12-31T21:59:39.186Z,32.77
2018-12-31T22:02:28.703Z,33.13
2018-12-31T22:05:17.921Z,33.07
2018-12-31T22:08:06.419Z,35.00
2018-12-31T22:10:56.248Z,34.17
2018-12-31T22:13:45.276Z,35.13
2018-12-31T22:16:34.839Z,37.87
2018-12-31T22:19:24.403Z,37.23
2018-12-31T22:22:13.540Z,35.20
2018-12-31T22:25:02.966Z,36.17
2018-12-31T22:27:52.320Z,36.90
2018-12-31T22:30:41.525Z,39.20
2018-12-31T22:33:30.496Z,38.07
2018-12-31T22:36:19.899Z,36.47
2018-12-31T22:39:08.917Z,35.37
2018-12-31T22:41:58.149Z,33.70
2018-12-31T22:44:47.253Z,33.60
2018-12-31T22:47:36.307Z,31.40
2018-12-31T22:50:25.794Z,30.97
2018-12-31T22:53:14.905Z,29.90
2018-12-31T22:56:03.653Z,29.83
2018-12-31T22:58:52.289Z,30.10
2018-12-31T23:01:41.465Z,29.53
2018-12-31T23:04:31.241Z,29.73
2018-12-31T23:07:20.603Z,56.03
2018-12-31T23:10:10.874Z,110.87
2018-12-31T23:13:00.356Z,121.27
2018-12-31T23:15:49.942Z,165.13
2018-12-31T23:18:39.819Z,155.90
2018-12-31T23:21:29.152Z,162.00
2018-12-31T23:24:18.399Z,193.30
2018-12-31T23:27:08.944Z,173.60
2018-12-31T23:29:58.101Z,148.30
2018-12-31T23:32:47.093Z,103.10
2018-12-31T23:35:36.171Z,68.13
2018-12-31T23:38:25.121Z,60.83
2018-12-31T23:41:15.084Z,56.40
2018-12-31T23:44:04.044Z,57.37
2018-12-31T23:46:52.798Z,54.43
2018-12-31T23:49:41.633Z,54.67
2018-12-31T23:52:31.213Z,62.77
2018-12-31T23:55:20.246Z,71.03
2018-12-31T23:58:09.579Z,84.50
